sensor_id;sensor_type;location;lat;lon;timestamp;P1;durP1;ratioP1;P2;durP2;ratioP2
2998;SDS011;1509;51.964;7.628;2023-03-01T00:01:24;10.70;;;7.90;;
2998;SDS011;1509;51.964;7.628;2023-03-01T00:03:51;9.87;;;7.43;;
2998;SDS011;1509;51.964;7.628;2023-03-01T00:06:18;10.90;;;6.97;;
2998;SDS011;1509;51.964;7.628;2023-03-01T00:08:44;10.30;;;6.80;;
2998;SDS011;1509;51.964;7.628;2023-03-01T00:11:11;11.97;;;7.80;;
2998;SDS011;1509;51.964;7.628;2023-03-01T00:13:43;10.47;;;8.00;;
2998;SDS011;1509;51.964;7.628;2023-03-01T00:16:11;10.33;;;7.23;;
2998;SDS011;1509;51.964;7.628;2023-03-01T00:18:38;11.87;;;7.53;;
2998;SDS011;1509;51.964;7.628;2023-03-01T00:21:04;11.47;;;6.70;;
2998;SDS011;1509;51.964;7.628;2023-03-01T00:23:30;10.13;;;7.43;;
2998;SDS011;1509;51.964;7.628;2023-03-01T00:25:56;9.40;;;7.33;;
2998;SDS011;1509;51.964;7.628;2023-03-01T00:28:22;9.17;;;7.70;;
2998;SDS011;1509;51.964;7.628;2023-03-01T00:30:48;12.40;;;7.17;;
2998;SDS011;1509;51.964;7.628;2023-03-01T00:33:14;8.53;;;6.60;;
2998;SDS011;1509;51.964;7.628;2023-03-01T00:35:39;11.60;;;6.50;;
2998;SDS011;1509;51.964;7.628;2023-03-01T00:38:05;10.17;;;7.60;;
2998;SDS011;1509;51.964;7.628;2023-03-01T00:40:32;10.70;;;7.90;;
2998;SDS011;1509;51.964;7.628;2023-03-01T00:42:59;10.40;;;7.07;;
2998;SDS011;1509;51.964;7.628;2023-03-01T00:45:25;9.70;;;6.40;;
2998;SDS011;1509;51.964;7.628;2023-03-01T00:47:51;10.23;;;7.23;;
2998;SDS011;1509;51.964;7.628;2023-03-01T00:50:17;12.70;;;7.67;;
2998;SDS011;1509;51.964;7.628;2023-03-01T00:52:44;11.37;;;7.10;;
2998;SDS011;1509;51.964;7.628;2023-03-01T00:55:10;10.30;;;7.47;;
2998;SDS011;1509;51.964;7.628;2023-03-01T00:57:36;12.13;;;7.80;;
2998;SDS011;1509;51.964;7.628;2023-03-01T01:00:03;11.10;;;7.80;;
2998;SDS011;1509;51.964;7.628;2023-03-01T01:02:31;10.73;;;7.23;;
2998;SDS011;1509;51.964;7.628;2023-03-01T01:04:58;9.10;;;7.73;;
2998;SDS011;1509;51.964;7.628;2023-03-01T01:07:24;10.93;;;7.07;;
2998;SDS011;1509;51.964;7.628;2023-03-01T01:09:49;12.00;;;7.80;;
2998;SDS011;1509;51.964;7.628;2023-03-01T01:12:15;11.40;;;7.90;;
2998;SDS011;1509;51.964;7.628;2023-03-01T01:14:41;10.90;;;7.40;;
2998;SDS011;1509;51.964;7.628;2023-03-01T01:17:06;9.23;;;7.40;;
2998;SDS011;1509;51.964;7.628;2023-03-01T01:19:32;9.17;;;7.07;;
2998;SDS011;1509;51.964;7.628;2023-03-01T01:21:57;17.77;;;8.20;;
2998;SDS011;1509;51.964;7.628;2023-03-01T01:24:23;11.80;;;8.47;;
2998;SDS011;1509;51.964;7.628;2023-03-01T01:26:49;9.70;;;6.77;;
2998;SDS011;1509;51.964;7.628;2023-03-01T01:29:14;13.93;;;7.80;;
2998;SDS011;1509;51.964;7.628;2023-03-01T01:31:41;13.73;;;8.17;;
2998;SDS011;1509;51.964;7.628;2023-03-01T01:34:08;9.37;;;7.87;;
2998;SDS011;1509;51.964;7.628;2023-03-01T01:36:41;9.17;;;7.97;;
2998;SDS011;1509;51.964;7.628;2023-03-01T01:39:06;13.57;;;7.90;;
2998;SDS011;1509;51.964;7.628;2023-03-01T01:41:32;8.53;;;7.00;;
2998;SDS011;1509;51.964;7.628;2023-03-01T01:44:20;8.77;;;7.70;;
2998;SDS011;1509;51.964;7.628;2023-03-01T01:49:37;10.80;;;7.70;;
2998;SDS011;1509;51.964;7.628;2023-03-01T01:54:50;11.37;;;7.27;;
2998;SDS011;1509;51.964;7.628;2023-03-01T01:57:26;11.20;;;6.83;;
2998;SDS011;1509;51.964;7.628;2023-03-01T01:59:59;12.07;;;8.93;;
2998;SDS011;1509;51.964;7.628;2023-03-01T02:02:29;9.90;;;7.27;;
2998;SDS011;1509;51.964;7.628;2023-03-01T02:07:53;9.90;;;7.67;;
2998;SDS011;1509;51.964;7.628;2023-03-01T02:10:21;9.70;;;7.23;;
2998;SDS011;1509;51.964;7.628;2023-03-01T02:12:49;10.07;;;7.03;;
2998;SDS011;1509;51.964;7.628;2023-03-01T02:15:16;9.97;;;7.30;;
2998;SDS011;1509;51.964;7.628;2023-03-01T02:17:41;10.00;;;8.23;;
2998;SDS011;1509;51.964;7.628;2023-03-01T02:22:47;8.60;;;6.77;;
2998;SDS011;1509;51.964;7.628;2023-03-01T02:28:03;13.00;;;7.67;;
2998;SDS011;1509;51.964;7.628;2023-03-01T02:30:53;8.13;;;6.60;;
2998;SDS011;1509;51.964;7.628;2023-03-01T02:33:38;9.27;;;6.90;;
2998;SDS011;1509;51.964;7.628;2023-03-01T02:36:05;9.70;;;8.70;;
2998;SDS011;1509;51.964;7.628;2023-03-01T02:38:34;8.97;;;7.77;;
2998;SDS011;1509;51.964;7.628;2023-03-01T02:41:00;13.90;;;8.10;;
2998;SDS011;1509;51.964;7.628;2023-03-01T02:43:30;13.27;;;7.93;;
2998;SDS011;1509;51.964;7.628;2023-03-01T02:45:58;12.53;;;8.37;;
2998;SDS011;1509;51.964;7.628;2023-03-01T02:48:37;9.30;;;7.40;;
2998;SDS011;1509;51.964;7.628;2023-03-01T02:54:05;11.47;;;7.90;;
2998;SDS011;1509;51.964;7.628;2023-03-01T02:56:41;11.83;;;8.03;;
2998;SDS011;1509;51.964;7.628;2023-03-01T02:59:09;11.80;;;7.93;;
2998;SDS011;1509;51.964;7.628;2023-03-01T03:01:35;11.03;;;7.93;;
2998;SDS011;1509;51.964;7.628;2023-03-01T03:04:04;10.73;;;7.60;;
2998;SDS011;1509;51.964;7.628;2023-03-01T03:06:35;9.50;;;7.67;;
2998;SDS011;1509;51.964;7.628;2023-03-01T03:09:01;10.07;;;8.10;;
2998;SDS011;1509;51.964;7.628;2023-03-01T03:11:28;9.70;;;8.27;;
2998;SDS011;1509;51.964;7.628;2023-03-01T03:13:54;12.23;;;8.40;;
2998;SDS011;1509;51.964;7.628;2023-03-01T03:16:20;13.53;;;8.07;;
2998;SDS011;1509;51.964;7.628;2023-03-01T03:18:46;9.97;;;8.30;;
2998;SDS011;1509;51.964;7.628;2023-03-01T03:21:12;9.60;;;7.20;;
2998;SDS011;1509;51.964;7.628;2023-03-01T03:23:39;11.37;;;7.73;;
2998;SDS011;1509;51.964;7.628;2023-03-01T03:26:05;10.50;;;7.70;;
2998;SDS011;1509;51.964;7.628;2023-03-01T03:28:31;11.83;;;8.23;;
2998;SDS011;1509;51.964;7.628;2023-03-01T03:30:58;11.30;;;7.53;;
2998;SDS011;1509;51.964;7.628;2023-03-01T03:33:28;13.60;;;8.20;;
2998;SDS011;1509;51.964;7.628;2023-03-01T03:35:54;12.77;;;7.43;;
2998;SDS011;1509;51.964;7.628;2023-03-01T03:38:20;12.73;;;7.97;;
2998;SDS011;1509;51.964;7.628;2023-03-01T03:41:03;12.07;;;6.87;;
2998;SDS011;1509;51.964;7.628;2023-03-01T03:43:31;9.90;;;8.07;;
2998;SDS011;1509;51.964;7.628;2023-03-01T03:45:57;11.80;;;8.97;;
2998;SDS011;1509;51.964;7.628;2023-03-01T03:48:23;12.90;;;8.07;;
2998;SDS011;1509;51.964;7.628;2023-03-01T03:50:50;11.03;;;7.63;;
2998;SDS011;1509;51.964;7.628;2023-03-01T03:53:17;12.00;;;7.27;;
2998;SDS011;1509;51.964;7.628;2023-03-01T03:55:44;11.63;;;8.03;;
2998;SDS011;1509;51.964;7.628;2023-03-01T03:58:10;9.93;;;7.50;;
2998;SDS011;1509;51.964;7.628;2023-03-01T04:03:03;9.97;;;7.40;;
2998;SDS011;1509;51.964;7.628;2023-03-01T04:05:29;9.40;;;7.70;;
2998;SDS011;1509;51.964;7.628;2023-03-01T04:07:56;10.00;;;7.10;;
2998;SDS011;1509;51.964;7.628;2023-03-01T04:10:32;13.93;;;8.30;;
2998;SDS011;1509;51.964;7.628;2023-03-01T04:13:00;10.47;;;7.60;;
2998;SDS011;1509;51.964;7.628;2023-03-01T04:15:26;14.80;;;8.17;;
2998;SDS011;1509;51.964;7.628;2023-03-01T04:17:52;11.50;;;8.07;;
2998;SDS011;1509;51.964;7.628;2023-03-01T04:20:22;9.50;;;7.63;;
2998;SDS011;1509;51.964;7.628;2023-03-01T04:22:50;9.83;;;7.80;;
2998;SDS011;1509;51.964;7.628;2023-03-01T04:25:59;11.13;;;8.47;;
2998;SDS011;1509;51.964;7.628;2023-03-01T04:28:28;13.40;;;8.10;;
2998;SDS011;1509;51.964;7.628;2023-03-01T04:30:56;11.90;;;7.60;;
2998;SDS011;1509;51.964;7.628;2023-03-01T04:33:23;10.13;;;7.60;;
2998;SDS011;1509;51.964;7.628;2023-03-01T04:35:50;13.43;;;7.80;;
2998;SDS011;1509;51.964;7.628;2023-03-01T04:38:16;9.43;;;7.63;;
2998;SDS011;1509;51.964;7.628;2023-03-01T04:40:42;11.47;;;7.83;;
2998;SDS011;1509;51.964;7.628;2023-03-01T04:43:08;8.07;;;6.83;;
2998;SDS011;1509;51.964;7.628;2023-03-01T04:45:35;11.63;;;7.30;;
2998;SDS011;1509;51.964;7.628;2023-03-01T04:48:01;10.40;;;7.27;;
2998;SDS011;1509;51.964;7.628;2023-03-01T04:50:27;9.73;;;7.70;;
2998;SDS011;1509;51.964;7.628;2023-03-01T04:52:53;12.43;;;7.33;;
2998;SDS011;1509;51.964;7.628;2023-03-01T04:55:19;14.50;;;8.60;;
2998;SDS011;1509;51.964;7.628;2023-03-01T04:57:44;12.70;;;7.97;;
2998;SDS011;1509;51.964;7.628;2023-03-01T05:00:11;9.97;;;7.60;;
2998;SDS011;1509;51.964;7.628;2023-03-01T05:02:47;13.87;;;8.00;;
2998;SDS011;1509;51.964;7.628;2023-03-01T05:05:28;8.87;;;6.50;;
2998;SDS011;1509;51.964;7.628;2023-03-01T05:08:04;11.17;;;8.20;;
2998;SDS011;1509;51.964;7.628;2023-03-01T05:10:32;10.67;;;6.97;;
2998;SDS011;1509;51.964;7.628;2023-03-01T05:13:00;11.23;;;8.30;;
2998;SDS011;1509;51.964;7.628;2023-03-01T05:15:27;10.80;;;8.07;;
2998;SDS011;1509;51.964;7.628;2023-03-01T05:17:55;13.10;;;8.30;;
2998;SDS011;1509;51.964;7.628;2023-03-01T05:20:23;11.50;;;9.37;;
2998;SDS011;1509;51.964;7.628;2023-03-01T05:22:56;11.60;;;8.40;;
2998;SDS011;1509;51.964;7.628;2023-03-01T05:25:23;9.57;;;8.10;;
2998;SDS011;1509;51.964;7.628;2023-03-01T05:27:49;10.47;;;7.97;;
2998;SDS011;1509;51.964;7.628;2023-03-01T05:30:15;16.13;;;7.57;;
2998;SDS011;1509;51.964;7.628;2023-03-01T05:32:43;12.43;;;9.10;;
2998;SDS011;1509;51.964;7.628;2023-03-01T05:35:15;12.27;;;8.90;;
2998;SDS011;1509;51.964;7.628;2023-03-01T05:37:42;9.27;;;8.33;;
2998;SDS011;1509;51.964;7.628;2023-03-01T05:40:10;12.03;;;7.80;;
2998;SDS011;1509;51.964;7.628;2023-03-01T05:42:40;14.73;;;8.80;;
2998;SDS011;1509;51.964;7.628;2023-03-01T05:45:08;12.57;;;8.90;;
2998;SDS011;1509;51.964;7.628;2023-03-01T05:47:35;8.87;;;7.97;;
2998;SDS011;1509;51.964;7.628;2023-03-01T05:50:00;12.17;;;8.70;;
2998;SDS011;1509;51.964;7.628;2023-03-01T05:52:26;12.17;;;7.90;;
2998;SDS011;1509;51.964;7.628;2023-03-01T05:54:52;14.20;;;8.23;;
2998;SDS011;1509;51.964;7.628;2023-03-01T05:57:17;13.10;;;9.50;;
2998;SDS011;1509;51.964;7.628;2023-03-01T05:59:43;11.70;;;9.17;;
2998;SDS011;1509;51.964;7.628;2023-03-01T06:02:10;14.40;;;8.97;;
2998;SDS011;1509;51.964;7.628;2023-03-01T06:04:35;11.27;;;9.60;;
2998;SDS011;1509;51.964;7.628;2023-03-01T06:07:01;16.20;;;9.57;;
2998;SDS011;1509;51.964;7.628;2023-03-01T06:09:26;13.40;;;8.60;;
2998;SDS011;1509;51.964;7.628;2023-03-01T06:11:52;18.73;;;8.70;;
2998;SDS011;1509;51.964;7.628;2023-03-01T06:14:18;12.50;;;9.10;;
2998;SDS011;1509;51.964;7.628;2023-03-01T06:16:43;15.47;;;9.60;;
2998;SDS011;1509;51.964;7.628;2023-03-01T06:19:09;12.87;;;9.43;;
2998;SDS011;1509;51.964;7.628;2023-03-01T06:21:34;14.63;;;10.17;;
2998;SDS011;1509;51.964;7.628;2023-03-01T06:24:00;13.60;;;9.47;;
2998;SDS011;1509;51.964;7.628;2023-03-01T06:26:26;11.60;;;9.20;;
2998;SDS011;1509;51.964;7.628;2023-03-01T06:28:52;15.10;;;11.20;;
2998;SDS011;1509;51.964;7.628;2023-03-01T06:31:20;14.33;;;9.97;;
2998;SDS011;1509;51.964;7.628;2023-03-01T06:33:45;15.73;;;8.87;;
2998;SDS011;1509;51.964;7.628;2023-03-01T06:36:11;16.63;;;10.67;;
2998;SDS011;1509;51.964;7.628;2023-03-01T06:38:36;16.53;;;10.10;;
2998;SDS011;1509;51.964;7.628;2023-03-01T06:41:02;15.50;;;9.80;;
2998;SDS011;1509;51.964;7.628;2023-03-01T06:43:28;14.40;;;9.43;;
2998;SDS011;1509;51.964;7.628;2023-03-01T06:45:53;20.17;;;10.90;;
2998;SDS011;1509;51.964;7.628;2023-03-01T06:48:19;17.07;;;12.67;;
2998;SDS011;1509;51.964;7.628;2023-03-01T06:50:45;16.27;;;9.90;;
2998;SDS011;1509;51.964;7.628;2023-03-01T06:53:10;14.27;;;10.17;;
2998;SDS011;1509;51.964;7.628;2023-03-01T06:55:36;12.67;;;9.67;;
2998;SDS011;1509;51.964;7.628;2023-03-01T06:58:02;15.00;;;9.60;;
2998;SDS011;1509;51.964;7.628;2023-03-01T07:00:28;35.03;;;16.73;;
2998;SDS011;1509;51.964;7.628;2023-03-01T07:02:54;30.80;;;16.03;;
2998;SDS011;1509;51.964;7.628;2023-03-01T07:05:22;15.27;;;10.57;;
2998;SDS011;1509;51.964;7.628;2023-03-01T07:07:48;12.73;;;9.57;;
2998;SDS011;1509;51.964;7.628;2023-03-01T07:10:13;13.73;;;9.30;;
2998;SDS011;1509;51.964;7.628;2023-03-01T07:12:39;16.43;;;10.77;;
2998;SDS011;1509;51.964;7.628;2023-03-01T07:15:06;20.93;;;10.60;;
2998;SDS011;1509;51.964;7.628;2023-03-01T07:17:34;18.50;;;10.70;;
2998;SDS011;1509;51.964;7.628;2023-03-01T07:20:00;15.23;;;9.47;;
2998;SDS011;1509;51.964;7.628;2023-03-01T07:22:25;14.67;;;10.03;;
2998;SDS011;1509;51.964;7.628;2023-03-01T07:24:51;16.37;;;10.70;;
2998;SDS011;1509;51.964;7.628;2023-03-01T07:27:16;13.40;;;9.00;;
2998;SDS011;1509;51.964;7.628;2023-03-01T07:29:42;19.27;;;12.63;;
2998;SDS011;1509;51.964;7.628;2023-03-01T07:32:07;12.63;;;10.30;;
2998;SDS011;1509;51.964;7.628;2023-03-01T07:34:34;19.67;;;11.23;;
2998;SDS011;1509;51.964;7.628;2023-03-01T07:37:00;14.10;;;10.10;;
2998;SDS011;1509;51.964;7.628;2023-03-01T07:39:26;14.20;;;9.37;;
2998;SDS011;1509;51.964;7.628;2023-03-01T07:41:51;13.20;;;10.47;;
2998;SDS011;1509;51.964;7.628;2023-03-01T07:44:17;14.20;;;9.97;;
2998;SDS011;1509;51.964;7.628;2023-03-01T07:46:43;13.80;;;11.13;;
2998;SDS011;1509;51.964;7.628;2023-03-01T07:49:09;15.10;;;9.93;;
2998;SDS011;1509;51.964;7.628;2023-03-01T07:51:35;12.47;;;9.07;;
2998;SDS011;1509;51.964;7.628;2023-03-01T07:54:01;15.13;;;10.00;;
2998;SDS011;1509;51.964;7.628;2023-03-01T07:56:26;9.13;;;7.80;;
2998;SDS011;1509;51.964;7.628;2023-03-01T07:58:52;12.00;;;9.57;;
2998;SDS011;1509;51.964;7.628;2023-03-01T08:01:18;15.60;;;9.60;;
2998;SDS011;1509;51.964;7.628;2023-03-01T08:03:45;19.07;;;10.10;;
2998;SDS011;1509;51.964;7.628;2023-03-01T08:06:12;14.70;;;9.97;;
2998;SDS011;1509;51.964;7.628;2023-03-01T08:08:39;13.10;;;9.50;;
2998;SDS011;1509;51.964;7.628;2023-03-01T08:11:06;14.13;;;9.97;;
2998;SDS011;1509;51.964;7.628;2023-03-01T08:13:32;14.77;;;10.40;;
2998;SDS011;1509;51.964;7.628;2023-03-01T08:16:06;17.23;;;11.23;;
2998;SDS011;1509;51.964;7.628;2023-03-01T08:18:34;16.37;;;10.23;;
2998;SDS011;1509;51.964;7.628;2023-03-01T08:21:01;14.67;;;9.17;;
2998;SDS011;1509;51.964;7.628;2023-03-01T08:23:30;16.07;;;9.00;;
2998;SDS011;1509;51.964;7.628;2023-03-01T08:26:02;15.27;;;9.50;;
2998;SDS011;1509;51.964;7.628;2023-03-01T08:28:29;15.03;;;8.53;;
2998;SDS011;1509;51.964;7.628;2023-03-01T08:30:55;14.50;;;8.33;;
2998;SDS011;1509;51.964;7.628;2023-03-01T08:33:21;10.77;;;8.30;;
2998;SDS011;1509;51.964;7.628;2023-03-01T08:35:46;9.70;;;8.13;;
2998;SDS011;1509;51.964;7.628;2023-03-01T08:38:12;10.70;;;7.10;;
2998;SDS011;1509;51.964;7.628;2023-03-01T08:40:37;7.13;;;6.40;;
2998;SDS011;1509;51.964;7.628;2023-03-01T08:43:05;9.50;;;7.00;;
2998;SDS011;1509;51.964;7.628;2023-03-01T08:45:31;12.90;;;7.83;;
2998;SDS011;1509;51.964;7.628;2023-03-01T08:47:56;11.87;;;7.50;;
2998;SDS011;1509;51.964;7.628;2023-03-01T08:50:22;12.20;;;9.03;;
2998;SDS011;1509;51.964;7.628;2023-03-01T08:52:49;9.90;;;7.10;;
2998;SDS011;1509;51.964;7.628;2023-03-01T08:55:15;10.90;;;8.07;;
2998;SDS011;1509;51.964;7.628;2023-03-01T08:57:42;7.53;;;6.63;;
2998;SDS011;1509;51.964;7.628;2023-03-01T09:00:09;9.23;;;6.63;;
2998;SDS011;1509;51.964;7.628;2023-03-01T09:02:36;8.47;;;6.50;;
2998;SDS011;1509;51.964;7.628;2023-03-01T09:05:02;9.00;;;6.60;;
2998;SDS011;1509;51.964;7.628;2023-03-01T09:07:28;7.97;;;6.10;;
2998;SDS011;1509;51.964;7.628;2023-03-01T09:09:54;10.53;;;7.03;;
2998;SDS011;1509;51.964;7.628;2023-03-01T09:12:20;9.10;;;6.90;;
2998;SDS011;1509;51.964;7.628;2023-03-01T09:14:45;9.90;;;7.30;;
2998;SDS011;1509;51.964;7.628;2023-03-01T09:17:11;10.63;;;7.57;;
2998;SDS011;1509;51.964;7.628;2023-03-01T09:19:39;10.63;;;7.50;;
2998;SDS011;1509;51.964;7.628;2023-03-01T09:22:07;9.23;;;7.83;;
2998;SDS011;1509;51.964;7.628;2023-03-01T09:24:33;9.97;;;7.57;;
2998;SDS011;1509;51.964;7.628;2023-03-01T09:26:59;14.83;;;8.10;;
2998;SDS011;1509;51.964;7.628;2023-03-01T09:29:24;10.63;;;7.97;;
2998;SDS011;1509;51.964;7.628;2023-03-01T09:31:50;10.23;;;7.93;;
2998;SDS011;1509;51.964;7.628;2023-03-01T09:34:19;9.03;;;6.77;;
2998;SDS011;1509;51.964;7.628;2023-03-01T09:36:48;11.27;;;7.93;;
2998;SDS011;1509;51.964;7.628;2023-03-01T09:39:14;7.77;;;6.20;;
2998;SDS011;1509;51.964;7.628;2023-03-01T09:44:16;7.53;;;6.60;;
2998;SDS011;1509;51.964;7.628;2023-03-01T09:46:49;9.77;;;8.70;;
2998;SDS011;1509;51.964;7.628;2023-03-01T09:49:23;9.77;;;7.80;;
2998;SDS011;1509;51.964;7.628;2023-03-01T09:54:21;9.00;;;6.60;;
2998;SDS011;1509;51.964;7.628;2023-03-01T09:56:59;7.97;;;6.50;;
2998;SDS011;1509;51.964;7.628;2023-03-01T10:02:39;10.03;;;7.77;;
2998;SDS011;1509;51.964;7.628;2023-03-01T10:05:31;7.77;;;6.40;;
2998;SDS011;1509;51.964;7.628;2023-03-01T10:08:28;9.23;;;7.23;;
2998;SDS011;1509;51.964;7.628;2023-03-01T10:10:58;9.83;;;7.30;;
2998;SDS011;1509;51.964;7.628;2023-03-01T10:13:52;10.87;;;7.20;;
2998;SDS011;1509;51.964;7.628;2023-03-01T10:19:18;7.97;;;6.10;;
2998;SDS011;1509;51.964;7.628;2023-03-01T10:22:18;9.90;;;7.77;;
2998;SDS011;1509;51.964;7.628;2023-03-01T10:24:48;11.53;;;8.33;;
2998;SDS011;1509;51.964;7.628;2023-03-01T10:27:17;11.80;;;8.50;;
2998;SDS011;1509;51.964;7.628;2023-03-01T10:29:50;13.50;;;6.63;;
2998;SDS011;1509;51.964;7.628;2023-03-01T10:32:36;10.00;;;7.57;;
2998;SDS011;1509;51.964;7.628;2023-03-01T10:35:14;11.80;;;7.90;;
2998;SDS011;1509;51.964;7.628;2023-03-01T10:40:30;10.60;;;7.37;;
2998;SDS011;1509;51.964;7.628;2023-03-01T10:42:58;9.40;;;7.50;;
2998;SDS011;1509;51.964;7.628;2023-03-01T10:48:04;9.77;;;7.80;;
2998;SDS011;1509;51.964;7.628;2023-03-01T10:50:29;7.77;;;6.83;;
2998;SDS011;1509;51.964;7.628;2023-03-01T10:52:57;10.10;;;7.90;;
2998;SDS011;1509;51.964;7.628;2023-03-01T10:58:06;10.00;;;7.60;;
2998;SDS011;1509;51.964;7.628;2023-03-01T11:00:39;11.10;;;8.57;;
2998;SDS011;1509;51.964;7.628;2023-03-01T11:03:13;9.97;;;8.07;;
2998;SDS011;1509;51.964;7.628;2023-03-01T11:05:55;12.57;;;9.17;;
2998;SDS011;1509;51.964;7.628;2023-03-01T11:08:44;11.00;;;7.80;;
2998;SDS011;1509;51.964;7.628;2023-03-01T11:13:38;9.93;;;8.03;;
2998;SDS011;1509;51.964;7.628;2023-03-01T11:16:24;9.47;;;7.60;;
2998;SDS011;1509;51.964;7.628;2023-03-01T11:19:14;10.70;;;8.47;;
2998;SDS011;1509;51.964;7.628;2023-03-01T11:24:34;11.13;;;7.37;;
2998;SDS011;1509;51.964;7.628;2023-03-01T11:27:08;10.17;;;7.77;;
2998;SDS011;1509;51.964;7.628;2023-03-01T11:32:47;9.93;;;7.80;;
2998;SDS011;1509;51.964;7.628;2023-03-01T11:35:24;11.00;;;8.00;;
2998;SDS011;1509;51.964;7.628;2023-03-01T11:40:50;10.43;;;7.00;;
2998;SDS011;1509;51.964;7.628;2023-03-01T11:46:49;12.77;;;8.20;;
2998;SDS011;1509;51.964;7.628;2023-03-01T11:49:48;12.37;;;8.03;;
2998;SDS011;1509;51.964;7.628;2023-03-01T12:08:38;8.00;;;6.50;;
2998;SDS011;1509;51.964;7.628;2023-03-01T12:14:05;9.87;;;7.47;;
2998;SDS011;1509;51.964;7.628;2023-03-01T12:19:59;13.87;;;7.17;;
2998;SDS011;1509;51.964;7.628;2023-03-01T12:22:38;7.83;;;6.23;;
2998;SDS011;1509;51.964;7.628;2023-03-01T12:28:20;7.30;;;6.00;;
2998;SDS011;1509;51.964;7.628;2023-03-01T12:34:07;8.53;;;6.50;;
2998;SDS011;1509;51.964;7.628;2023-03-01T12:36:34;10.13;;;6.30;;
2998;SDS011;1509;51.964;7.628;2023-03-01T12:42:01;8.10;;;6.93;;
2998;SDS011;1509;51.964;7.628;2023-03-01T12:50:04;8.13;;;7.23;;
2998;SDS011;1509;51.964;7.628;2023-03-01T12:52:42;10.23;;;6.70;;
2998;SDS011;1509;51.964;7.628;2023-03-01T12:55:22;8.37;;;6.43;;
2998;SDS011;1509;51.964;7.628;2023-03-01T12:58:09;7.43;;;5.27;;
2998;SDS011;1509;51.964;7.628;2023-03-01T13:01:15;8.27;;;6.17;;
2998;SDS011;1509;51.964;7.628;2023-03-01T13:03:51;9.50;;;6.10;;
2998;SDS011;1509;51.964;7.628;2023-03-01T13:09:31;11.60;;;7.10;;
2998;SDS011;1509;51.964;7.628;2023-03-01T13:15:36;7.50;;;5.47;;
2998;SDS011;1509;51.964;7.628;2023-03-01T13:20:33;7.60;;;5.17;;
2998;SDS011;1509;51.964;7.628;2023-03-01T13:25:59;7.70;;;6.00;;
2998;SDS011;1509;51.964;7.628;2023-03-01T13:33:57;6.63;;;5.20;;
2998;SDS011;1509;51.964;7.628;2023-03-01T13:39:26;7.60;;;5.27;;
2998;SDS011;1509;51.964;7.628;2023-03-01T13:41:57;8.40;;;5.63;;
2998;SDS011;1509;51.964;7.628;2023-03-01T13:44:37;10.90;;;6.00;;
2998;SDS011;1509;51.964;7.628;2023-03-01T13:50:16;7.10;;;4.87;;
2998;SDS011;1509;51.964;7.628;2023-03-01T13:52:40;9.43;;;5.93;;
2998;SDS011;1509;51.964;7.628;2023-03-01T13:57:50;8.47;;;6.20;;
2998;SDS011;1509;51.964;7.628;2023-03-01T14:00:27;8.40;;;6.47;;
2998;SDS011;1509;51.964;7.628;2023-03-01T14:03:01;7.63;;;6.10;;
2998;SDS011;1509;51.964;7.628;2023-03-01T14:05:34;10.10;;;5.87;;
2998;SDS011;1509;51.964;7.628;2023-03-01T14:08:01;8.57;;;5.50;;
2998;SDS011;1509;51.964;7.628;2023-03-01T14:10:42;7.37;;;5.70;;
2998;SDS011;1509;51.964;7.628;2023-03-01T14:13:31;8.87;;;5.70;;
2998;SDS011;1509;51.964;7.628;2023-03-01T14:21:27;8.17;;;6.10;;
2998;SDS011;1509;51.964;7.628;2023-03-01T14:23:54;10.23;;;5.27;;
2998;SDS011;1509;51.964;7.628;2023-03-01T14:26:21;10.50;;;5.80;;
2998;SDS011;1509;51.964;7.628;2023-03-01T14:28:47;9.37;;;6.10;;
2998;SDS011;1509;51.964;7.628;2023-03-01T14:33:56;8.30;;;6.17;;
2998;SDS011;1509;51.964;7.628;2023-03-01T14:36:26;8.80;;;6.20;;
2998;SDS011;1509;51.964;7.628;2023-03-01T14:38:53;10.47;;;6.23;;
2998;SDS011;1509;51.964;7.628;2023-03-01T14:41:22;8.17;;;6.20;;
2998;SDS011;1509;51.964;7.628;2023-03-01T14:43:53;8.43;;;5.70;;
2998;SDS011;1509;51.964;7.628;2023-03-01T14:46:35;11.03;;;7.00;;
2998;SDS011;1509;51.964;7.628;2023-03-01T14:49:04;9.57;;;6.03;;
2998;SDS011;1509;51.964;7.628;2023-03-01T14:51:37;10.47;;;6.17;;
2998;SDS011;1509;51.964;7.628;2023-03-01T14:54:10;7.33;;;5.20;;
2998;SDS011;1509;51.964;7.628;2023-03-01T14:56:50;9.30;;;5.90;;
2998;SDS011;1509;51.964;7.628;2023-03-01T14:59:19;8.50;;;5.50;;
2998;SDS011;1509;51.964;7.628;2023-03-01T15:01:47;13.73;;;6.87;;
2998;SDS011;1509;51.964;7.628;2023-03-01T15:04:14;7.33;;;5.50;;
2998;SDS011;1509;51.964;7.628;2023-03-01T15:06:40;8.63;;;5.70;;
2998;SDS011;1509;51.964;7.628;2023-03-01T15:09:06;10.20;;;6.30;;
2998;SDS011;1509;51.964;7.628;2023-03-01T15:11:38;8.63;;;6.00;;
2998;SDS011;1509;51.964;7.628;2023-03-01T15:16:52;11.23;;;6.20;;
2998;SDS011;1509;51.964;7.628;2023-03-01T15:19:18;7.43;;;5.53;;
2998;SDS011;1509;51.964;7.628;2023-03-01T15:21:46;7.50;;;4.97;;
2998;SDS011;1509;51.964;7.628;2023-03-01T15:24:18;6.80;;;5.17;;
2998;SDS011;1509;51.964;7.628;2023-03-01T15:26:58;8.20;;;5.17;;
2998;SDS011;1509;51.964;7.628;2023-03-01T15:29:31;8.33;;;5.57;;
2998;SDS011;1509;51.964;7.628;2023-03-01T15:31:59;9.30;;;5.33;;
2998;SDS011;1509;51.964;7.628;2023-03-01T15:34:35;7.77;;;4.93;;
2998;SDS011;1509;51.964;7.628;2023-03-01T15:37:02;10.50;;;5.63;;
2998;SDS011;1509;51.964;7.628;2023-03-01T15:42:12;12.90;;;5.23;;
2998;SDS011;1509;51.964;7.628;2023-03-01T15:47:46;8.73;;;5.10;;
2998;SDS011;1509;51.964;7.628;2023-03-01T15:52:49;7.90;;;5.57;;
2998;SDS011;1509;51.964;7.628;2023-03-01T15:57:42;8.30;;;4.40;;
2998;SDS011;1509;51.964;7.628;2023-03-01T16:00:11;9.20;;;4.67;;
2998;SDS011;1509;51.964;7.628;2023-03-01T16:02:39;6.80;;;4.63;;
2998;SDS011;1509;51.964;7.628;2023-03-01T16:05:08;7.00;;;4.63;;
2998;SDS011;1509;51.964;7.628;2023-03-01T16:07:56;9.00;;;4.57;;
2998;SDS011;1509;51.964;7.628;2023-03-01T16:10:21;6.47;;;4.93;;
2998;SDS011;1509;51.964;7.628;2023-03-01T16:12:48;10.07;;;5.30;;
2998;SDS011;1509;51.964;7.628;2023-03-01T16:17:46;7.60;;;3.67;;
2998;SDS011;1509;51.964;7.628;2023-03-01T16:20:12;6.93;;;4.63;;
2998;SDS011;1509;51.964;7.628;2023-03-01T16:22:40;6.17;;;3.47;;
2998;SDS011;1509;51.964;7.628;2023-03-01T16:25:11;10.40;;;4.40;;
2998;SDS011;1509;51.964;7.628;2023-03-01T16:27:41;7.90;;;4.50;;
2998;SDS011;1509;51.964;7.628;2023-03-01T16:30:08;8.07;;;5.10;;
2998;SDS011;1509;51.964;7.628;2023-03-01T16:32:37;8.83;;;4.40;;
2998;SDS011;1509;51.964;7.628;2023-03-01T16:35:04;6.20;;;4.77;;
2998;SDS011;1509;51.964;7.628;2023-03-01T16:37:31;8.33;;;4.43;;
2998;SDS011;1509;51.964;7.628;2023-03-01T16:39:57;9.33;;;4.97;;
2998;SDS011;1509;51.964;7.628;2023-03-01T16:42:23;7.80;;;4.60;;
2998;SDS011;1509;51.964;7.628;2023-03-01T16:44:53;5.93;;;4.30;;
2998;SDS011;1509;51.964;7.628;2023-03-01T16:47:20;8.10;;;5.20;;
2998;SDS011;1509;51.964;7.628;2023-03-01T16:49:46;7.60;;;4.30;;
2998;SDS011;1509;51.964;7.628;2023-03-01T16:52:12;7.53;;;4.90;;
2998;SDS011;1509;51.964;7.628;2023-03-01T16:54:38;9.60;;;4.77;;
2998;SDS011;1509;51.964;7.628;2023-03-01T16:57:03;7.10;;;4.70;;
2998;SDS011;1509;51.964;7.628;2023-03-01T16:59:29;7.73;;;4.90;;
2998;SDS011;1509;51.964;7.628;2023-03-01T17:01:55;7.57;;;4.63;;
2998;SDS011;1509;51.964;7.628;2023-03-01T17:04:21;5.20;;;3.90;;
2998;SDS011;1509;51.964;7.628;2023-03-01T17:06:46;10.17;;;5.33;;
2998;SDS011;1509;51.964;7.628;2023-03-01T17:09:13;7.27;;;4.77;;
2998;SDS011;1509;51.964;7.628;2023-03-01T17:11:39;6.23;;;4.40;;
2998;SDS011;1509;51.964;7.628;2023-03-01T17:14:04;8.23;;;4.80;;
2998;SDS011;1509;51.964;7.628;2023-03-01T17:16:30;7.90;;;4.33;;
2998;SDS011;1509;51.964;7.628;2023-03-01T17:18:56;8.00;;;4.63;;
2998;SDS011;1509;51.964;7.628;2023-03-01T17:21:21;5.03;;;4.00;;
2998;SDS011;1509;51.964;7.628;2023-03-01T17:23:48;8.07;;;4.20;;
2998;SDS011;1509;51.964;7.628;2023-03-01T17:26:14;7.50;;;5.23;;
2998;SDS011;1509;51.964;7.628;2023-03-01T17:28:41;8.37;;;4.40;;
2998;SDS011;1509;51.964;7.628;2023-03-01T17:31:08;7.80;;;5.60;;
2998;SDS011;1509;51.964;7.628;2023-03-01T17:33:34;7.33;;;4.47;;
2998;SDS011;1509;51.964;7.628;2023-03-01T17:36:00;8.90;;;4.60;;
2998;SDS011;1509;51.964;7.628;2023-03-01T17:38:26;12.03;;;5.30;;